Pagrindinis puslapis
METAR-TAF:

METAR-TAF

Oro uostai :

Čiangmajus, Tailandas

platuma: 18-47N, ilguma: 098-59E, Aukštis: 312 m

Dabartinis oras

Ataskaita buvo paskelbta 43 minutes, ne 08:00 UTC
Vėjas 5 kt iš Pietų/Pietvakarių, svyruoja nuo Pietų/Pietryčių ir Vakarų/Pietvakarių
Temperatūra 33°C
Drėgmė 39%
Slėgis 1015 hPa
Matomumas: 7000 m
Mažai debesys ne aukštis 3500 ft

METAR: VTCC 210800Z 20005KT 150V240 7000 FEW035 33/17 Q1015 NOSIG

Laikas: 15:43 (08:43 UTC)

Prognozė

Ataskaita buvo paskelbta 3 valandos ir 43 minutes, ne 05:00 UTC
Prognozė galioja nuo 21 metu 06 UTC su 22 metu 12 UTC
Vėjas 5 kt iš Šiaurės/Šiaurės Rytų
Matomumas: 8000 m

TAF: VTCC 210500Z 2106/2212 03005KT 8000 NSC

Orai ataskaitas ir orų prognozės (METAR, TAF).

turimą stotys yra geltonos ir raudonos taškus žemėlapyje.

Perkelti pele per norėdami pamatyti stoties vardą.

Tada spustelėkite, norėdami matyti oro stebėjimo ir prognozės.

Norėdami pakeisti žemėlapį: spustelėkite ant žalios mygtukų su juodo kryžiaus žemyn,; žalią mygtuką su brūkšneliu, jei norite nutolinti; arba žalių rodyklių gretimoms žemėlapius.


METAR-TAF: